createdAt,value
2018-06-23T00:00:03.817Z,0.00
2018-06-23T00:01:03.878Z,0.00
2018-06-23T00:02:03.932Z,0.00
2018-06-23T00:03:03.996Z,0.00
2018-06-23T00:04:04.048Z,0.00
2018-06-23T00:05:04.106Z,0.00
2018-06-23T00:06:04.162Z,0.00
2018-06-23T00:07:04.219Z,0.00
2018-06-23T00:08:04.276Z,0.00
2018-06-23T00:09:04.336Z,0.00
2018-06-23T00:10:04.391Z,0.00
2018-06-23T00:11:04.449Z,0.00
2018-06-23T00:12:04.506Z,0.00
2018-06-23T00:13:04.564Z,0.00
2018-06-23T00:14:04.623Z,0.00
2018-06-23T00:15:04.679Z,0.00
2018-06-23T00:16:04.736Z,0.00
2018-06-23T00:17:04.796Z,0.00
2018-06-23T00:18:04.851Z,0.00
2018-06-23T00:19:04.910Z,0.00
2018-06-23T00:20:04.965Z,0.00
2018-06-23T00:21:05.023Z,0.00
2018-06-23T00:22:05.080Z,0.00
2018-06-23T00:23:05.137Z,0.00
2018-06-23T00:24:05.193Z,0.00
2018-06-23T00:25:05.252Z,0.00
2018-06-23T00:26:05.311Z,0.00
2018-06-23T00:27:05.367Z,0.00
2018-06-23T00:28:05.425Z,0.00
2018-06-23T00:29:05.482Z,0.00
2018-06-23T00:30:05.539Z,0.00
2018-06-23T00:31:05.595Z,0.00
2018-06-23T00:32:05.653Z,0.00
2018-06-23T00:33:05.711Z,0.00
2018-06-23T00:34:05.768Z,0.00
2018-06-23T00:35:05.825Z,0.00
2018-06-23T00:36:06.133Z,0.00
2018-06-23T00:37:05.941Z,0.00
2018-06-23T00:38:05.998Z,0.00
2018-06-23T00:39:06.055Z,0.00
2018-06-23T00:40:06.111Z,0.00
2018-06-23T00:41:06.169Z,0.00
2018-06-23T00:42:06.227Z,0.00
2018-06-23T00:43:06.282Z,0.00
2018-06-23T00:44:06.340Z,0.00
2018-06-23T00:45:06.398Z,0.00
2018-06-23T00:46:06.455Z,0.00
2018-06-23T00:47:06.512Z,0.00
2018-06-23T00:48:06.569Z,0.00
2018-06-23T00:49:06.625Z,0.00
2018-06-23T00:50:06.685Z,0.00
2018-06-23T00:51:06.740Z,0.00
2018-06-23T00:52:06.798Z,0.00
2018-06-23T00:53:06.856Z,0.00
2018-06-23T00:54:06.913Z,0.00
2018-06-23T00:55:06.969Z,0.00
2018-06-23T00:56:07.030Z,0.00
2018-06-23T00:57:07.085Z,0.00
2018-06-23T00:58:07.140Z,0.00
2018-06-23T00:59:07.198Z,0.00
2018-06-23T01:00:07.256Z,0.00
2018-06-23T01:01:07.312Z,0.00
2018-06-23T01:02:07.370Z,0.00
2018-06-23T01:03:07.426Z,0.00
2018-06-23T01:04:07.484Z,0.00
2018-06-23T01:05:07.541Z,0.00
2018-06-23T01:06:07.598Z,0.00
2018-06-23T01:07:07.654Z,0.00
2018-06-23T01:08:07.710Z,0.00
2018-06-23T01:09:07.769Z,0.00
2018-06-23T01:10:07.825Z,0.00
2018-06-23T01:11:07.883Z,0.00
2018-06-23T01:12:07.939Z,0.00
2018-06-23T01:13:07.997Z,0.00
2018-06-23T01:14:08.054Z,0.00
2018-06-23T01:15:08.109Z,0.00
2018-06-23T01:16:08.167Z,0.00
2018-06-23T01:17:08.225Z,0.00
2018-06-23T01:18:08.281Z,0.00
2018-06-23T01:19:08.337Z,0.00
2018-06-23T01:20:08.395Z,0.00
2018-06-23T01:21:08.452Z,0.00
2018-06-23T01:22:08.509Z,0.00
2018-06-23T01:23:08.565Z,0.00
2018-06-23T01:24:08.623Z,0.00
2018-06-23T01:25:08.679Z,0.00
2018-06-23T01:26:08.737Z,0.00
2018-06-23T01:27:08.796Z,0.00
2018-06-23T01:28:08.850Z,0.00
2018-06-23T01:29:08.907Z,0.00
2018-06-23T01:30:08.966Z,0.00
2018-06-23T01:31:09.019Z,0.00
2018-06-23T01:32:09.077Z,0.00
2018-06-23T01:33:09.136Z,0.00
2018-06-23T01:34:09.196Z,0.00
2018-06-23T01:35:09.248Z,0.00
2018-06-23T01:36:09.305Z,0.00
2018-06-23T01:37:09.362Z,0.00
2018-06-23T01:38:09.419Z,0.00
2018-06-23T01:39:09.475Z,0.00
2018-06-23T01:40:09.532Z,0.00
2018-06-23T01:41:09.590Z,0.00
2018-06-23T01:42:09.649Z,0.00
2018-06-23T01:43:09.707Z,0.00
2018-06-23T01:44:09.759Z,0.00
2018-06-23T01:45:09.819Z,0.00
2018-06-23T01:46:09.873Z,0.00
2018-06-23T01:47:09.931Z,0.00
2018-06-23T01:48:09.987Z,0.00
2018-06-23T01:49:10.047Z,0.00
2018-06-23T01:50:10.353Z,0.00
2018-06-23T01:51:10.159Z,0.00
2018-06-23T01:52:10.213Z,0.00
2018-06-23T01:53:10.272Z,0.00
2018-06-23T01:54:10.328Z,0.00
2018-06-23T01:55:10.385Z,0.00
2018-06-23T01:56:10.442Z,0.00
2018-06-23T01:57:10.499Z,0.00
2018-06-23T01:58:10.558Z,0.00
2018-06-23T01:59:10.614Z,0.00
2018-06-23T02:00:10.670Z,0.00
2018-06-23T02:01:10.727Z,0.00
2018-06-23T02:02:10.784Z,0.00
2018-06-23T02:03:10.839Z,0.00
2018-06-23T02:04:10.897Z,0.00
2018-06-23T02:05:10.954Z,0.00
2018-06-23T02:06:11.019Z,0.00
2018-06-23T02:07:11.068Z,0.00
2018-06-23T02:08:11.128Z,0.00
2018-06-23T02:09:11.183Z,0.00
2018-06-23T02:10:11.239Z,0.00
2018-06-23T02:11:11.295Z,0.00
2018-06-23T02:12:11.356Z,0.00
2018-06-23T02:13:11.410Z,0.00
2018-06-23T02:14:11.467Z,0.00
2018-06-23T02:15:11.532Z,0.00
2018-06-23T02:16:11.581Z,0.00
2018-06-23T02:17:11.639Z,0.00
2018-06-23T02:18:11.698Z,0.00
2018-06-23T02:19:11.754Z,0.00
2018-06-23T02:20:11.808Z,0.00
2018-06-23T02:21:11.865Z,0.00
2018-06-23T02:22:11.922Z,0.00
2018-06-23T02:23:11.979Z,0.00
2018-06-23T02:24:12.035Z,0.00
2018-06-23T02:25:12.092Z,0.00
2018-06-23T02:26:12.150Z,0.00
2018-06-23T02:27:12.206Z,0.00
2018-06-23T02:28:12.263Z,0.00
2018-06-23T02:29:12.570Z,0.00
2018-06-23T02:30:12.377Z,0.00
2018-06-23T02:31:12.434Z,0.00
2018-06-23T02:32:12.491Z,0.00
2018-06-23T02:33:12.547Z,0.00
2018-06-23T02:34:12.603Z,0.00
2018-06-23T02:35:12.662Z,0.00
2018-06-23T02:36:12.718Z,0.00
2018-06-23T02:37:12.776Z,0.00
2018-06-23T02:38:12.833Z,0.00
2018-06-23T02:39:12.890Z,0.00
2018-06-23T02:40:12.945Z,0.00
2018-06-23T02:41:13.001Z,0.00
2018-06-23T02:42:13.060Z,0.00
2018-06-23T02:43:13.115Z,0.00
2018-06-23T02:44:13.173Z,0.00
2018-06-23T02:45:13.229Z,0.00
2018-06-23T02:46:13.287Z,0.00
2018-06-23T02:47:13.343Z,0.00
2018-06-23T02:48:13.400Z,0.00
2018-06-23T02:49:13.456Z,0.00
2018-06-23T02:50:13.514Z,0.00
2018-06-23T02:51:13.570Z,0.00
2018-06-23T02:52:13.876Z,0.00
2018-06-23T02:53:13.684Z,0.00
2018-06-23T02:54:13.741Z,0.00
2018-06-23T02:55:13.796Z,0.00
2018-06-23T02:56:13.855Z,0.00
2018-06-23T02:57:13.912Z,0.00
2018-06-23T02:58:13.968Z,0.00
2018-06-23T02:59:14.025Z,0.00
2018-06-23T03:00:14.097Z,0.00
2018-06-23T03:01:14.143Z,0.00
2018-06-23T03:02:14.198Z,0.00
2018-06-23T03:03:14.252Z,0.00
2018-06-23T03:04:14.312Z,0.00
2018-06-23T03:05:14.368Z,0.00
2018-06-23T03:06:14.426Z,0.00
2018-06-23T03:07:14.481Z,0.00
2018-06-23T03:08:14.539Z,0.00
2018-06-23T03:09:14.595Z,0.00
2018-06-23T03:10:14.653Z,0.00
2018-06-23T03:11:14.712Z,0.00
2018-06-23T03:12:14.769Z,0.00
2018-06-23T03:13:14.827Z,5.63
2018-06-23T03:14:14.882Z,5.63
2018-06-23T03:15:14.939Z,5.63
2018-06-23T03:16:14.997Z,5.63
2018-06-23T03:17:15.053Z,5.63
2018-06-23T03:18:15.110Z,5.63
2018-06-23T03:19:15.168Z,5.63
2018-06-23T03:20:15.232Z,5.63
2018-06-23T03:21:15.283Z,11.25
2018-06-23T03:22:15.342Z,11.25
2018-06-23T03:23:15.396Z,11.25
2018-06-23T03:24:15.453Z,11.25
2018-06-23T03:25:15.512Z,11.25
2018-06-23T03:26:15.575Z,11.25
2018-06-23T03:27:15.624Z,11.25
2018-06-23T03:28:15.683Z,11.25
2018-06-23T03:29:15.741Z,16.88
2018-06-23T03:30:15.797Z,16.88
2018-06-23T03:31:15.853Z,16.88
2018-06-23T03:32:15.911Z,16.88
2018-06-23T03:33:15.969Z,16.88
2018-06-23T03:34:16.025Z,16.88
2018-06-23T03:35:16.082Z,22.50
2018-06-23T03:36:16.389Z,22.50
2018-06-23T03:37:16.197Z,22.50
2018-06-23T03:38:16.253Z,22.50
2018-06-23T03:39:16.310Z,22.50
2018-06-23T03:40:16.367Z,28.13
2018-06-23T03:41:16.425Z,28.13
2018-06-23T03:42:16.481Z,28.13
2018-06-23T03:43:16.538Z,28.13
2018-06-23T03:44:16.594Z,33.75
2018-06-23T03:45:16.654Z,33.75
2018-06-23T03:46:16.709Z,33.75
2018-06-23T03:47:16.764Z,33.75
2018-06-23T03:48:16.822Z,33.75
2018-06-23T03:49:16.880Z,33.75
2018-06-23T03:50:16.937Z,39.38
2018-06-23T03:51:16.994Z,39.38
2018-06-23T03:52:17.050Z,39.38
2018-06-23T03:53:17.107Z,39.38
2018-06-23T03:54:17.165Z,45.00
2018-06-23T03:55:17.221Z,45.00
2018-06-23T03:56:17.278Z,45.00
2018-06-23T03:57:17.335Z,50.63
2018-06-23T03:58:17.392Z,50.63
2018-06-23T03:59:17.447Z,50.63
2018-06-23T04:00:17.540Z,50.63
2018-06-23T04:01:17.579Z,50.63
2018-06-23T04:02:17.620Z,56.25
2018-06-23T04:03:17.678Z,56.25
2018-06-23T04:04:17.734Z,56.25
2018-06-23T04:05:17.792Z,61.88
2018-06-23T04:06:17.860Z,61.88
2018-06-23T04:07:17.908Z,61.88
2018-06-23T04:08:17.965Z,67.50
2018-06-23T04:09:18.021Z,67.50
2018-06-23T04:10:18.078Z,73.13
2018-06-23T04:11:18.135Z,73.13
2018-06-23T04:12:18.192Z,73.13
2018-06-23T04:13:18.250Z,73.13
2018-06-23T04:14:18.306Z,78.75
2018-06-23T04:15:18.364Z,78.75
2018-06-23T04:16:18.421Z,84.38
2018-06-23T04:17:18.477Z,84.38
2018-06-23T04:18:18.536Z,84.38
2018-06-23T04:19:18.593Z,84.38
2018-06-23T04:20:18.650Z,84.38
2018-06-23T04:21:18.709Z,90.00
2018-06-23T04:22:18.765Z,95.63
2018-06-23T04:23:18.822Z,101.25
2018-06-23T04:24:18.880Z,106.88
2018-06-23T04:25:18.937Z,106.88
2018-06-23T04:26:18.995Z,112.50
2018-06-23T04:27:19.052Z,112.50
2018-06-23T04:28:19.110Z,118.13
2018-06-23T04:29:19.185Z,123.75
2018-06-23T04:30:19.226Z,129.38
2018-06-23T04:31:19.282Z,135.00
2018-06-23T04:32:19.338Z,135.00
2018-06-23T04:33:19.396Z,129.38
2018-06-23T04:34:19.455Z,129.38
2018-06-23T04:35:19.512Z,135.00
2018-06-23T04:36:19.969Z,135.00
2018-06-23T04:37:19.631Z,151.88
2018-06-23T04:38:19.685Z,163.13
2018-06-23T04:39:19.742Z,151.88
2018-06-23T04:40:19.799Z,151.88
2018-06-23T04:41:20.516Z,157.50
2018-06-23T04:42:20.719Z,163.13
2018-06-23T04:43:20.606Z,168.75
2018-06-23T04:44:20.732Z,180.00
2018-06-23T04:45:20.088Z,196.88
2018-06-23T04:46:20.146Z,208.13
2018-06-23T04:47:20.202Z,213.75
2018-06-23T04:48:20.260Z,219.38
2018-06-23T04:49:20.318Z,213.75
2018-06-23T04:50:20.376Z,219.38
2018-06-23T04:51:20.433Z,219.38
2018-06-23T04:52:20.491Z,225.00
2018-06-23T04:53:20.551Z,225.00
2018-06-23T04:54:20.607Z,202.50
2018-06-23T04:55:20.665Z,174.38
2018-06-23T04:56:20.723Z,157.50
2018-06-23T04:57:20.780Z,163.13
2018-06-23T04:58:20.838Z,180.00
2018-06-23T04:59:20.898Z,174.38
2018-06-23T05:00:20.981Z,146.25
2018-06-23T05:01:21.012Z,146.25
2018-06-23T05:02:21.072Z,146.25
2018-06-23T05:03:21.128Z,140.63
2018-06-23T05:04:21.185Z,146.25
2018-06-23T05:05:21.247Z,163.13
2018-06-23T05:06:21.300Z,163.13
2018-06-23T05:07:21.363Z,180.00
2018-06-23T05:08:21.418Z,191.25
2018-06-23T05:09:21.475Z,196.88
2018-06-23T05:10:21.784Z,202.50
2018-06-23T05:11:21.595Z,202.50
2018-06-23T05:12:21.693Z,213.75
2018-06-23T05:13:21.709Z,241.88
2018-06-23T05:14:21.767Z,258.75
2018-06-23T05:15:21.825Z,270.00
2018-06-23T05:16:21.880Z,264.38
2018-06-23T05:17:21.939Z,264.38
2018-06-23T05:18:21.998Z,275.63
2018-06-23T05:19:22.055Z,286.88
2018-06-23T05:20:22.115Z,303.75
2018-06-23T05:21:22.172Z,309.38
2018-06-23T05:22:22.231Z,315.00
2018-06-23T05:23:22.288Z,303.75
2018-06-23T05:24:22.347Z,298.13
2018-06-23T05:25:22.405Z,303.75
2018-06-23T05:26:22.464Z,292.50
2018-06-23T05:27:22.521Z,281.25
2018-06-23T05:28:22.579Z,281.25
2018-06-23T05:29:22.640Z,270.00
2018-06-23T05:30:22.699Z,270.00
2018-06-23T05:31:22.755Z,264.38
2018-06-23T05:32:22.814Z,264.38
2018-06-23T05:33:22.873Z,281.25
2018-06-23T05:34:22.931Z,309.38
2018-06-23T05:35:22.991Z,320.63
2018-06-23T05:36:23.050Z,309.38
2018-06-23T05:37:23.107Z,292.50
2018-06-23T05:38:23.166Z,275.63
2018-06-23T05:39:23.375Z,275.63
2018-06-23T05:40:23.285Z,298.13
2018-06-23T05:41:23.341Z,331.88
2018-06-23T05:42:23.401Z,360.00
2018-06-23T05:43:23.460Z,365.63
2018-06-23T05:44:23.521Z,376.88
2018-06-23T05:45:23.578Z,376.88
2018-06-23T05:46:23.637Z,376.88
2018-06-23T05:47:23.696Z,371.25
2018-06-23T05:48:23.755Z,360.00
2018-06-23T05:49:23.813Z,343.13
2018-06-23T05:50:23.875Z,326.25
2018-06-23T05:51:24.028Z,320.63
2018-06-23T05:52:23.993Z,309.38
2018-06-23T05:53:24.053Z,309.38
2018-06-23T05:54:24.111Z,320.63
2018-06-23T05:55:24.170Z,343.13
2018-06-23T05:56:24.230Z,337.50
2018-06-23T05:57:24.293Z,320.63
2018-06-23T05:58:24.348Z,309.38
2018-06-23T05:59:24.412Z,315.00
2018-06-23T06:00:24.468Z,331.88
2018-06-23T06:01:24.528Z,343.13
2018-06-23T06:02:24.586Z,365.63
2018-06-23T06:03:24.646Z,388.13
2018-06-23T06:04:24.705Z,388.13
2018-06-23T06:05:24.765Z,393.75
2018-06-23T06:06:24.828Z,410.63
2018-06-23T06:07:25.133Z,365.63
2018-06-23T06:08:24.943Z,343.13
2018-06-23T06:09:25.005Z,331.88
2018-06-23T06:10:25.099Z,320.63
2018-06-23T06:11:25.121Z,326.25
2018-06-23T06:12:25.182Z,360.00
2018-06-23T06:13:25.244Z,326.25
2018-06-23T06:14:25.302Z,303.75
2018-06-23T06:15:26.024Z,315.00
2018-06-23T06:16:26.060Z,309.38
2018-06-23T06:17:26.056Z,298.13
2018-06-23T06:18:26.566Z,286.88
2018-06-23T06:19:26.165Z,286.88
2018-06-23T06:20:26.222Z,315.00
2018-06-23T06:21:26.296Z,365.63
2018-06-23T06:22:26.375Z,416.25
2018-06-23T06:23:26.541Z,438.75
2018-06-23T06:24:26.756Z,421.88
2018-06-23T06:25:26.683Z,421.88
2018-06-23T06:26:26.697Z,433.13
2018-06-23T06:27:26.725Z,427.50
2018-06-23T06:28:26.732Z,421.88
2018-06-23T06:29:26.840Z,399.38
2018-06-23T06:30:30.427Z,388.13
2018-06-23T06:31:26.323Z,388.13
2018-06-23T06:32:26.381Z,388.13
2018-06-23T06:33:26.444Z,388.13
2018-06-23T06:34:27.080Z,393.75
2018-06-23T06:35:27.175Z,376.88
2018-06-23T06:36:27.321Z,337.50
2018-06-23T06:37:26.682Z,331.88
2018-06-23T06:38:26.743Z,371.25
2018-06-23T06:39:26.802Z,405.00
2018-06-23T06:40:26.861Z,421.88
2018-06-23T06:41:26.923Z,421.88
2018-06-23T06:42:27.632Z,393.75
2018-06-23T06:43:27.646Z,405.00
2018-06-23T06:44:27.741Z,433.13
2018-06-23T06:45:27.754Z,455.63
2018-06-23T06:46:27.854Z,495.00
2018-06-23T06:47:28.047Z,511.88
2018-06-23T06:48:28.020Z,495.00
2018-06-23T06:49:27.985Z,466.88
2018-06-23T06:50:28.031Z,433.13
2018-06-23T06:51:28.013Z,393.75
2018-06-23T06:52:28.178Z,354.38
2018-06-23T06:53:28.108Z,331.88
2018-06-23T06:55:28.270Z,315.00
2018-06-23T06:56:28.328Z,303.75
2018-06-23T06:57:28.276Z,298.13
2018-06-23T06:58:28.732Z,303.75
2018-06-23T06:59:28.013Z,315.00
2018-06-23T07:00:28.085Z,320.63
2018-06-23T07:01:28.135Z,337.50
2018-06-23T07:02:28.196Z,354.38
2018-06-23T07:03:28.306Z,382.50
2018-06-23T07:04:28.316Z,393.75
2018-06-23T07:05:28.377Z,399.38
2018-06-23T07:06:28.439Z,405.00
2018-06-23T07:07:28.499Z,410.63
2018-06-23T07:08:28.559Z,405.00
2018-06-23T07:09:28.620Z,433.13
2018-06-23T07:10:28.681Z,427.50
2018-06-23T07:11:28.740Z,399.38
2018-06-23T07:12:28.801Z,388.13
2018-06-23T07:13:28.862Z,360.00
2018-06-23T07:14:28.923Z,393.75
2018-06-23T07:15:28.994Z,438.75
2018-06-23T07:16:29.044Z,472.50
2018-06-23T07:17:29.105Z,461.25
2018-06-23T07:18:29.166Z,405.00
2018-06-23T07:19:29.230Z,421.88
2018-06-23T07:20:29.287Z,438.75
2018-06-23T07:21:29.349Z,393.75
2018-06-23T07:22:29.410Z,371.25
2018-06-23T07:23:29.522Z,354.38
2018-06-23T07:24:29.530Z,343.13
2018-06-23T07:25:29.591Z,326.25
2018-06-23T07:26:29.652Z,337.50
2018-06-23T07:27:29.713Z,337.50
2018-06-23T07:28:29.774Z,326.25
2018-06-23T07:29:29.834Z,309.38
2018-06-23T07:30:29.896Z,303.75
2018-06-23T07:31:29.962Z,275.63
2018-06-23T07:32:30.168Z,281.25
2018-06-23T07:33:30.078Z,275.63
2018-06-23T07:34:30.246Z,286.88
2018-06-23T07:35:30.199Z,298.13
2018-06-23T07:36:30.265Z,292.50
2018-06-23T07:37:30.323Z,286.88
2018-06-23T07:38:30.637Z,303.75
2018-06-23T07:39:30.443Z,309.38
2018-06-23T07:40:30.504Z,320.63
2018-06-23T07:41:30.616Z,337.50
2018-06-23T07:42:30.628Z,337.50
2018-06-23T07:43:30.687Z,315.00
2018-06-23T07:44:30.749Z,286.88
2018-06-23T07:45:30.810Z,275.63
2018-06-23T07:46:30.881Z,309.38
2018-06-23T07:47:30.931Z,354.38
2018-06-23T07:48:30.993Z,354.38
2018-06-23T07:49:31.831Z,343.13
2018-06-23T07:50:31.721Z,320.63
2018-06-23T07:51:31.175Z,298.13
2018-06-23T07:52:31.237Z,298.13
2018-06-23T07:53:31.301Z,303.75
2018-06-23T07:54:31.360Z,315.00
2018-06-23T07:55:31.570Z,320.63
2018-06-23T07:56:31.481Z,315.00
2018-06-23T07:57:31.543Z,309.38
2018-06-23T07:58:31.603Z,303.75
2018-06-23T07:59:31.664Z,286.88
2018-06-23T08:00:31.725Z,275.63
2018-06-23T08:01:31.819Z,281.25
2018-06-23T08:02:31.848Z,286.88
2018-06-23T08:03:31.910Z,286.88
2018-06-23T08:04:31.971Z,298.13
2018-06-23T08:05:32.030Z,303.75
2018-06-23T08:06:32.094Z,320.63
2018-06-23T08:07:32.152Z,337.50
2018-06-23T08:08:32.212Z,360.00
2018-06-23T08:09:32.281Z,388.13
2018-06-23T08:10:32.335Z,416.25
2018-06-23T08:11:32.396Z,433.13
2018-06-23T08:12:32.707Z,450.00
2018-06-23T08:13:32.520Z,450.00
2018-06-23T08:14:32.586Z,438.75
2018-06-23T08:15:32.641Z,450.00
2018-06-23T08:16:32.702Z,438.75
2018-06-23T08:17:32.763Z,421.88
2018-06-23T08:18:32.838Z,410.63
2018-06-23T08:19:32.885Z,410.63
2018-06-23T08:20:32.947Z,466.88
2018-06-23T08:21:33.009Z,590.63
2018-06-23T08:22:33.072Z,725.63
2018-06-23T08:23:33.132Z,765.00
2018-06-23T08:24:33.194Z,776.25
2018-06-23T08:25:33.261Z,810.00
2018-06-23T08:26:33.411Z,877.50
2018-06-23T08:27:33.379Z,956.25
2018-06-23T08:28:33.440Z,1012.50
2018-06-23T08:29:33.503Z,939.38
2018-06-23T08:30:33.566Z,900.00
2018-06-23T08:31:33.627Z,888.75
2018-06-23T08:32:33.690Z,883.13
2018-06-23T08:33:33.752Z,781.88
2018-06-23T08:34:33.814Z,697.50
2018-06-23T08:35:33.877Z,686.25
2018-06-23T08:36:33.942Z,720.00
2018-06-23T08:37:34.002Z,798.75
2018-06-23T08:38:34.066Z,933.75
2018-06-23T08:39:34.128Z,1040.63
2018-06-23T08:40:34.191Z,1091.25
2018-06-23T08:41:34.254Z,1141.88
2018-06-23T08:42:34.316Z,1147.50
2018-06-23T08:43:34.391Z,1141.88
2018-06-23T08:44:34.446Z,1170.00
2018-06-23T08:45:34.506Z,1164.38
2018-06-23T08:46:34.570Z,1136.25
2018-06-23T08:47:34.634Z,1186.88
2018-06-23T08:48:34.699Z,1248.75
2018-06-23T08:49:34.762Z,1237.50
2018-06-23T08:50:34.826Z,1231.88
2018-06-23T08:51:35.040Z,1248.75
2018-06-23T08:52:34.957Z,1254.38
2018-06-23T08:53:35.019Z,1282.50
2018-06-23T08:54:35.083Z,1288.13
2018-06-23T08:55:35.151Z,1288.13
2018-06-23T08:56:35.212Z,1243.13
2018-06-23T08:57:35.277Z,1198.13
2018-06-23T08:58:35.342Z,1141.88
2018-06-23T08:59:35.406Z,1119.38
2018-06-23T09:00:35.471Z,1102.50
2018-06-23T09:01:35.537Z,1108.13
2018-06-23T09:02:35.602Z,1158.75
2018-06-23T09:03:35.665Z,1175.63
2018-06-23T09:04:35.731Z,1164.38
2018-06-23T09:05:35.798Z,1192.50
2018-06-23T09:06:35.864Z,1231.88
2018-06-23T09:07:35.926Z,1276.88
2018-06-23T09:08:35.994Z,1299.38
2018-06-23T09:09:36.131Z,1282.50
2018-06-23T09:10:36.124Z,1271.25
2018-06-23T09:11:36.188Z,1276.88
2018-06-23T09:12:36.257Z,1293.75
2018-06-23T09:13:36.352Z,1338.75
2018-06-23T09:14:36.386Z,1333.13
2018-06-23T09:15:36.451Z,1333.13
2018-06-23T09:16:36.517Z,1338.75
2018-06-23T09:17:36.582Z,1310.63
2018-06-23T09:18:36.652Z,1361.25
2018-06-23T09:19:36.779Z,1428.75
2018-06-23T09:20:36.784Z,1440.00
2018-06-23T09:21:36.844Z,1428.75
2018-06-23T09:22:36.911Z,1462.50
2018-06-23T09:23:36.979Z,1485.00
2018-06-23T09:24:37.042Z,1456.88
2018-06-23T09:25:37.239Z,1451.25
2018-06-23T09:26:37.375Z,1456.88
2018-06-23T09:27:37.238Z,1485.00
2018-06-23T09:28:37.303Z,1485.00
2018-06-23T09:29:37.369Z,1462.50
2018-06-23T09:30:37.434Z,1462.50
2018-06-23T09:31:37.511Z,1440.00
2018-06-23T09:32:37.573Z,1417.50
2018-06-23T09:33:37.632Z,1406.25
2018-06-23T09:34:37.698Z,1378.13
2018-06-23T09:35:37.762Z,1378.13
2018-06-23T09:36:37.829Z,1366.88
2018-06-23T09:37:37.899Z,1366.88
2018-06-23T09:38:37.961Z,1372.50
2018-06-23T09:39:38.041Z,1395.00
2018-06-23T09:40:38.093Z,1400.63
2018-06-23T09:41:38.160Z,1400.63
2018-06-23T09:42:38.225Z,1378.13
2018-06-23T09:43:38.294Z,1366.88
2018-06-23T09:44:38.357Z,1372.50
2018-06-23T09:45:38.423Z,1378.13
2018-06-23T09:46:38.490Z,1395.00
2018-06-23T09:47:38.556Z,1417.50
2018-06-23T09:48:38.622Z,1423.13
2018-06-23T09:49:38.689Z,1434.38
2018-06-23T09:50:38.754Z,1428.75
2018-06-23T09:51:38.817Z,1417.50
2018-06-23T09:52:38.885Z,1395.00
2018-06-23T09:53:38.951Z,1395.00
2018-06-23T09:54:39.016Z,1378.13
2018-06-23T09:55:39.082Z,1417.50
2018-06-23T09:56:39.150Z,1451.25
2018-06-23T09:57:39.215Z,1445.63
2018-06-23T09:58:39.281Z,1423.13
2018-06-23T09:59:39.345Z,1468.13
2018-06-23T10:00:39.412Z,1597.50
2018-06-23T10:01:39.478Z,1546.88
2018-06-23T10:02:39.544Z,1546.88
2018-06-23T10:03:39.611Z,1558.13
2018-06-23T10:04:39.676Z,1552.50
2018-06-23T10:05:39.741Z,1749.38
2018-06-23T10:06:39.810Z,1732.50
2018-06-23T10:07:40.447Z,1524.38
2018-06-23T10:08:40.489Z,2250.00
2018-06-23T10:09:40.596Z,1940.63
2018-06-23T10:10:40.688Z,3780.00
2018-06-23T10:11:40.748Z,3470.63
2018-06-23T10:12:41.030Z,3386.25
2018-06-23T10:13:40.934Z,2857.50
2018-06-23T10:14:40.969Z,2823.75
2018-06-23T10:15:41.023Z,3706.88
2018-06-23T10:16:41.055Z,2745.00
2018-06-23T10:17:40.644Z,1558.13
2018-06-23T10:18:41.188Z,1546.88
2018-06-23T10:19:41.189Z,2576.25
2018-06-23T10:20:41.275Z,2340.00
2018-06-23T10:21:41.395Z,2171.25
2018-06-23T10:22:40.876Z,2598.75
2018-06-23T10:23:41.702Z,3678.75
2018-06-23T10:24:41.679Z,3588.75
2018-06-23T10:25:41.663Z,2154.38
2018-06-23T10:26:41.763Z,1468.13
2018-06-23T10:27:41.951Z,1704.38
2018-06-23T10:28:41.813Z,1265.63
2018-06-23T10:29:42.114Z,1192.50
2018-06-23T10:30:41.942Z,1153.13
2018-06-23T10:31:42.101Z,1119.38
2018-06-23T10:32:42.179Z,1091.25
2018-06-23T10:33:42.197Z,1119.38
2018-06-23T10:34:42.531Z,1119.38
2018-06-23T10:35:42.408Z,1113.75
2018-06-23T10:36:41.833Z,1108.13
2018-06-23T10:37:41.902Z,1198.13
2018-06-23T10:38:41.970Z,1383.75
2018-06-23T10:39:42.038Z,1260.00
2018-06-23T10:40:42.105Z,1378.13
2018-06-23T10:41:42.176Z,1248.75
2018-06-23T10:42:42.241Z,1479.38
2018-06-23T10:43:42.306Z,1946.25
2018-06-23T10:44:42.374Z,1642.50
2018-06-23T10:45:42.441Z,2182.50
2018-06-23T10:46:42.509Z,2430.00
2018-06-23T10:47:42.576Z,2160.00
2018-06-23T10:48:42.644Z,1496.25
2018-06-23T10:49:42.711Z,1271.25
2018-06-23T10:50:42.779Z,1158.75
2018-06-23T10:51:42.846Z,1130.63
2018-06-23T10:52:42.915Z,1108.13
2018-06-23T10:53:42.982Z,1625.63
2018-06-23T10:54:43.052Z,2137.50
2018-06-23T10:55:43.118Z,2806.88
2018-06-23T10:56:43.187Z,3048.75
2018-06-23T10:57:43.269Z,2086.88
2018-06-23T10:58:43.325Z,1704.38
2018-06-23T10:59:43.392Z,1749.38
2018-06-23T11:00:43.461Z,1940.63
2018-06-23T11:01:43.529Z,1473.75
2018-06-23T11:02:43.751Z,1243.13
2018-06-23T11:03:43.668Z,1113.75
2018-06-23T11:04:43.760Z,1040.63
2018-06-23T11:05:43.813Z,1001.25
2018-06-23T11:06:43.875Z,990.00
2018-06-23T11:07:43.941Z,978.75
2018-06-23T11:08:44.013Z,961.88
2018-06-23T11:09:44.080Z,956.25
2018-06-23T11:10:44.149Z,961.88
2018-06-23T11:11:44.216Z,978.75
2018-06-23T11:12:44.287Z,973.13
2018-06-23T11:13:44.352Z,956.25
2018-06-23T11:14:44.421Z,945.00
2018-06-23T11:15:44.487Z,967.50
2018-06-23T11:16:44.556Z,1001.25
2018-06-23T11:17:44.622Z,1063.13
2018-06-23T11:18:44.840Z,1170.00
2018-06-23T11:19:44.756Z,1316.25
2018-06-23T11:20:44.823Z,1518.75
2018-06-23T11:21:44.889Z,1732.50
2018-06-23T11:22:44.956Z,3206.25
2018-06-23T11:23:45.023Z,2491.88
2018-06-23T11:24:45.090Z,2401.88
2018-06-23T11:25:45.157Z,2109.38
2018-06-23T11:26:45.223Z,1980.00
2018-06-23T11:27:45.290Z,1788.75
2018-06-23T11:28:45.358Z,1676.25
2018-06-23T11:29:45.426Z,1456.88
2018-06-23T11:30:45.494Z,1299.38
2018-06-23T11:31:45.562Z,1288.13
2018-06-23T11:32:45.632Z,1226.25
2018-06-23T11:33:45.702Z,1096.88
2018-06-23T11:34:45.765Z,973.13
2018-06-23T11:35:45.831Z,894.38
2018-06-23T11:36:45.902Z,838.13
2018-06-23T11:37:45.967Z,804.38
2018-06-23T11:38:46.037Z,776.25
2018-06-23T11:39:46.102Z,776.25
2018-06-23T11:40:46.169Z,793.13
2018-06-23T11:41:46.390Z,821.25
2018-06-23T11:42:46.305Z,866.25
2018-06-23T11:43:46.372Z,905.63
2018-06-23T11:44:46.445Z,939.38
2018-06-23T11:45:46.508Z,973.13
2018-06-23T11:46:46.573Z,1029.38
2018-06-23T11:47:46.637Z,1119.38
2018-06-23T11:48:46.704Z,1220.63
2018-06-23T11:49:46.771Z,1265.63
2018-06-23T11:50:46.837Z,1192.50
2018-06-23T11:51:46.902Z,1012.50
2018-06-23T11:52:46.969Z,888.75
2018-06-23T11:53:47.037Z,826.88
2018-06-23T11:54:47.105Z,826.88
2018-06-23T11:55:47.168Z,815.63
2018-06-23T11:56:47.233Z,770.63
2018-06-23T11:57:47.300Z,725.63
2018-06-23T11:58:47.366Z,731.25
2018-06-23T11:59:47.431Z,776.25
2018-06-23T12:00:47.497Z,810.00
2018-06-23T12:01:47.568Z,821.25
2018-06-23T12:02:47.628Z,843.75
2018-06-23T12:03:47.697Z,871.88
2018-06-23T12:04:48.011Z,877.50
2018-06-23T12:05:47.825Z,843.75
2018-06-23T12:06:48.366Z,810.00
2018-06-23T12:07:48.627Z,770.63
2018-06-23T12:08:48.644Z,731.25
2018-06-23T12:09:48.731Z,697.50
2018-06-23T12:10:48.436Z,697.50
2018-06-23T12:11:48.784Z,686.25
2018-06-23T12:12:48.858Z,697.50
2018-06-23T12:13:48.972Z,686.25
2018-06-23T12:14:48.996Z,641.25
2018-06-23T12:15:49.100Z,607.50
2018-06-23T12:16:49.341Z,596.25
2018-06-23T12:17:49.291Z,596.25
2018-06-23T12:18:49.261Z,585.00
2018-06-23T12:19:49.381Z,556.88
2018-06-23T12:20:48.798Z,528.75
2018-06-23T12:21:48.862Z,517.50
2018-06-23T12:22:48.926Z,495.00
2018-06-23T12:23:48.990Z,478.13
2018-06-23T12:24:49.055Z,461.25
2018-06-23T12:25:49.121Z,438.75
2018-06-23T12:26:49.185Z,427.50
2018-06-23T12:27:49.246Z,438.75
2018-06-23T12:28:49.310Z,433.13
2018-06-23T12:29:49.375Z,450.00
2018-06-23T12:30:49.440Z,472.50
2018-06-23T12:31:49.501Z,517.50
2018-06-23T12:32:49.566Z,579.38
2018-06-23T12:33:49.630Z,624.38
2018-06-23T12:34:49.693Z,697.50
2018-06-23T12:35:49.754Z,781.88
2018-06-23T12:36:49.818Z,860.63
2018-06-23T12:37:49.883Z,905.63
2018-06-23T12:38:49.946Z,883.13